createdAt,value
2022-10-04T00:02:45.162Z,2.75
2022-10-04T00:05:29.245Z,3.17
2022-10-04T00:08:19.531Z,2.88
2022-10-04T00:11:05.127Z,2.30
2022-10-04T00:13:49.434Z,3.40
2022-10-04T00:16:33.860Z,2.75
2022-10-04T00:19:27.196Z,2.72
2022-10-04T00:22:12.587Z,3.35
2022-10-04T00:25:22.653Z,2.55
2022-10-04T00:28:28.663Z,3.13
2022-10-04T00:31:19.052Z,3.58
2022-10-04T00:34:16.628Z,2.67
2022-10-04T00:36:59.542Z,3.45
2022-10-04T00:39:43.760Z,2.92
2022-10-04T00:42:44.024Z,1.13
2022-10-04T00:45:34.744Z,2.58
2022-10-04T00:48:34.678Z,2.83
2022-10-04T00:51:23.413Z,2.97
2022-10-04T00:54:08.166Z,1.80
2022-10-04T00:56:52.515Z,2.90
2022-10-04T00:59:36.684Z,1.65
2022-10-04T01:02:21.838Z,3.03
2022-10-04T01:05:07.014Z,1.42
2022-10-04T01:07:50.750Z,1.15
2022-10-04T01:10:35.559Z,1.80
2022-10-04T01:13:20.294Z,2.47
2022-10-04T01:16:07.344Z,2.13
2022-10-04T01:18:51.461Z,2.70
2022-10-04T01:21:34.178Z,1.58
2022-10-04T01:24:18.601Z,3.28
2022-10-04T01:27:01.962Z,3.42
2022-10-04T01:29:44.686Z,2.33
2022-10-04T01:32:27.486Z,3.63
2022-10-04T01:35:11.368Z,3.08
2022-10-04T01:37:55.450Z,4.45
2022-10-04T01:40:44.007Z,3.45
2022-10-04T01:43:28.908Z,2.72
2022-10-04T01:46:13.508Z,3.80
2022-10-04T01:48:58.297Z,5.47
2022-10-04T01:51:44.697Z,7.47
2022-10-04T01:54:32.722Z,1.70
2022-10-04T01:57:18.615Z,2.70
2022-10-04T02:00:02.827Z,4.43
2022-10-04T02:02:50.620Z,2.53
2022-10-04T02:05:35.289Z,2.38
2022-10-04T02:08:19.345Z,2.67
2022-10-04T02:11:02.652Z,5.43
2022-10-04T02:13:47.423Z,6.05
2022-10-04T02:16:30.166Z,4.63
2022-10-04T02:19:13.211Z,4.38
2022-10-04T02:21:56.498Z,4.55
2022-10-04T02:24:41.814Z,3.08
2022-10-04T02:27:27.211Z,3.42
2022-10-04T02:30:12.584Z,3.60
2022-10-04T02:32:57.864Z,3.83
2022-10-04T02:35:45.123Z,4.85
2022-10-04T02:38:32.096Z,3.70
2022-10-04T02:41:24.933Z,2.63
2022-10-04T02:44:13.079Z,4.65
2022-10-04T02:46:59.955Z,4.55
2022-10-04T02:49:45.945Z,3.85
2022-10-04T02:52:31.677Z,2.85
2022-10-04T02:55:19.395Z,3.17
2022-10-04T02:58:02.408Z,3.80
2022-10-04T03:00:49.597Z,4.78
2022-10-04T03:03:34.690Z,2.70
2022-10-04T03:06:19.974Z,2.97
2022-10-04T03:09:03.981Z,2.92
2022-10-04T03:11:47.621Z,4.05
2022-10-04T03:14:30.369Z,3.50
2022-10-04T03:17:15.918Z,2.95
2022-10-04T03:20:00.268Z,2.75
2022-10-04T03:22:47.051Z,3.08
2022-10-04T03:25:31.148Z,2.97
2022-10-04T03:28:13.891Z,2.95
2022-10-04T03:30:58.034Z,3.13
2022-10-04T03:33:41.136Z,2.35
2022-10-04T03:36:26.011Z,3.65
2022-10-04T03:39:09.879Z,3.60
2022-10-04T03:41:53.202Z,3.13
2022-10-04T03:44:35.989Z,3.95
2022-10-04T03:47:21.070Z,3.67
2022-10-04T03:50:05.541Z,3.35
2022-10-04T03:52:51.428Z,2.78
2022-10-04T03:55:35.453Z,3.33
2022-10-04T03:58:19.036Z,2.65
2022-10-04T04:01:07.262Z,4.78
2022-10-04T04:03:55.899Z,2.50
2022-10-04T04:06:43.207Z,6.00
2022-10-04T04:09:33.190Z,3.35
2022-10-04T04:12:22.175Z,4.07
2022-10-04T04:15:07.243Z,4.32
2022-10-04T04:17:51.895Z,4.13
2022-10-04T04:20:35.741Z,1.80
2022-10-04T04:23:23.660Z,3.85
2022-10-04T04:26:15.851Z,3.85
2022-10-04T04:29:03.707Z,2.78
2022-10-04T04:31:48.273Z,2.40
2022-10-04T04:34:32.313Z,3.25
2022-10-04T04:37:14.952Z,3.47
2022-10-04T04:39:57.896Z,2.03
2022-10-04T04:42:41.987Z,3.15
2022-10-04T04:45:26.217Z,6.10
2022-10-04T04:48:08.890Z,2.40
2022-10-04T04:50:54.081Z,3.95
2022-10-04T04:53:37.100Z,3.60
2022-10-04T04:56:21.513Z,3.75
2022-10-04T04:59:07.635Z,4.72
2022-10-04T05:01:50.600Z,4.18
2022-10-04T05:04:33.324Z,4.45
2022-10-04T05:07:19.599Z,5.03
2022-10-04T05:10:02.442Z,3.15
2022-10-04T05:12:45.957Z,3.90
2022-10-04T05:15:33.870Z,7.45
2022-10-04T05:18:26.758Z,3.80
2022-10-04T05:21:13.774Z,3.13
2022-10-04T05:23:57.528Z,3.47
2022-10-04T05:26:42.550Z,3.83
2022-10-04T05:29:28.338Z,2.25
2022-10-04T05:32:17.453Z,3.92
2022-10-04T05:35:00.354Z,4.20
2022-10-04T05:37:47.450Z,2.80
2022-10-04T05:40:45.741Z,3.05
2022-10-04T05:43:33.353Z,6.03
2022-10-04T05:46:21.270Z,3.25
2022-10-04T05:49:08.964Z,3.05
2022-10-04T05:51:53.411Z,3.80
2022-10-04T05:54:37.991Z,3.67
2022-10-04T05:57:34.600Z,3.80
2022-10-04T06:00:18.878Z,3.15
2022-10-04T06:03:17.949Z,2.78
2022-10-04T06:06:05.988Z,2.50
2022-10-04T06:08:52.691Z,3.67
2022-10-04T06:11:44.192Z,3.22
2022-10-04T06:14:34.316Z,1.95
2022-10-04T06:17:26.093Z,3.22
2022-10-04T06:20:19.024Z,1.63
2022-10-04T06:23:06.728Z,4.20
2022-10-04T06:25:52.295Z,3.05
2022-10-04T06:28:36.454Z,4.97
2022-10-04T06:31:31.555Z,2.45
2022-10-04T06:34:20.124Z,3.75
2022-10-04T06:37:10.190Z,3.22
2022-10-04T06:40:06.876Z,3.00
2022-10-04T06:42:54.278Z,3.30
2022-10-04T06:45:54.633Z,5.88
2022-10-04T06:48:58.336Z,4.05
2022-10-04T06:51:46.863Z,4.05
2022-10-04T06:54:35.648Z,3.47
2022-10-04T06:57:29.821Z,5.95
2022-10-04T07:00:15.057Z,5.82
2022-10-04T07:02:59.946Z,5.75
2022-10-04T07:05:45.526Z,5.90
2022-10-04T07:08:32.732Z,5.07
2022-10-04T07:11:16.688Z,5.30
2022-10-04T07:14:06.315Z,5.47
2022-10-04T07:16:50.194Z,3.88
2022-10-04T07:19:36.250Z,5.53
2022-10-04T07:22:22.610Z,4.57
2022-10-04T07:25:08.299Z,5.63
2022-10-04T07:28:14.850Z,5.22
2022-10-04T07:30:59.648Z,8.75
2022-10-04T07:33:45.069Z,4.78
2022-10-04T07:36:29.958Z,7.05
2022-10-04T07:39:14.827Z,6.80
2022-10-04T07:41:58.508Z,5.65
2022-10-04T07:44:42.129Z,6.75
2022-10-04T07:47:27.923Z,6.80
2022-10-04T07:50:17.671Z,5.65
2022-10-04T07:53:07.137Z,8.95
2022-10-04T07:55:56.406Z,6.60
2022-10-04T07:58:45.924Z,5.97
2022-10-04T08:01:32.182Z,6.55
2022-10-04T08:04:28.426Z,6.93
2022-10-04T08:07:16.167Z,5.93
2022-10-04T08:10:02.689Z,6.32
2022-10-04T08:12:49.637Z,9.63
2022-10-04T08:15:37.636Z,7.78
2022-10-04T08:18:29.180Z,9.95
2022-10-04T08:21:17.930Z,8.00
2022-10-04T08:24:08.332Z,6.68
2022-10-04T08:26:57.979Z,7.00
2022-10-04T08:29:47.702Z,10.30
2022-10-04T08:32:41.865Z,6.75
2022-10-04T08:35:36.421Z,7.57
2022-10-04T08:38:24.941Z,7.35
2022-10-04T08:41:40.882Z,8.00
2022-10-04T08:44:38.654Z,9.55
2022-10-04T08:47:45.421Z,9.68
2022-10-04T08:50:47.910Z,6.72
2022-10-04T08:53:48.435Z,8.27
2022-10-04T08:56:40.003Z,8.23
2022-10-04T08:59:37.439Z,10.35
2022-10-04T09:02:36.499Z,7.03
2022-10-04T09:05:23.021Z,6.25
2022-10-04T09:08:26.746Z,10.25
2022-10-04T09:11:20.419Z,8.40
2022-10-04T09:14:22.885Z,8.93
2022-10-04T09:17:19.787Z,8.52
2022-10-04T09:20:37.142Z,7.45
2022-10-04T09:23:27.042Z,5.20
2022-10-04T09:26:20.723Z,8.85
2022-10-04T09:29:15.135Z,7.97
2022-10-04T09:32:17.260Z,8.48
2022-10-04T09:35:14.792Z,6.93
2022-10-04T09:38:05.211Z,5.90
2022-10-04T09:41:01.985Z,12.35
2022-10-04T09:43:57.334Z,6.28
2022-10-04T09:47:01.871Z,5.22
2022-10-04T09:49:54.167Z,8.60
2022-10-04T09:52:43.838Z,7.47
2022-10-04T09:55:33.503Z,6.43
2022-10-04T09:58:36.354Z,7.15
2022-10-04T10:01:29.543Z,7.63
2022-10-04T10:04:38.823Z,8.85
2022-10-04T10:07:36.116Z,9.07
2022-10-04T10:10:39.925Z,4.95
2022-10-04T10:13:42.821Z,5.68
2022-10-04T10:16:31.962Z,7.60
2022-10-04T10:19:29.027Z,6.75
2022-10-04T10:22:18.503Z,7.22
2022-10-04T10:25:16.053Z,9.30
2022-10-04T10:28:12.171Z,10.10
2022-10-04T10:31:05.842Z,8.40
2022-10-04T10:34:09.420Z,9.55
2022-10-04T10:37:09.047Z,11.15
2022-10-04T10:40:18.663Z,11.38
2022-10-04T10:43:09.501Z,9.85
2022-10-04T10:45:58.911Z,12.13
2022-10-04T10:48:57.979Z,8.82
2022-10-04T10:51:56.884Z,12.25
2022-10-04T10:54:53.344Z,13.45
2022-10-04T10:57:44.453Z,8.48
2022-10-04T11:00:32.520Z,9.85
2022-10-04T11:03:36.027Z,8.77
2022-10-04T11:06:36.410Z,8.85
2022-10-04T11:09:33.806Z,9.27
2022-10-04T11:12:28.447Z,7.93
2022-10-04T11:15:44.387Z,10.80
2022-10-04T11:18:55.128Z,10.18
2022-10-04T11:21:48.569Z,10.95
2022-10-04T11:24:45.319Z,8.65
2022-10-04T11:27:35.246Z,8.43
2022-10-04T11:30:23.495Z,7.80
2022-10-04T11:33:39.066Z,11.25
2022-10-04T11:36:30.982Z,10.65
2022-10-04T11:39:30.299Z,5.95
2022-10-04T11:42:19.670Z,6.95
2022-10-04T11:45:15.263Z,6.63
2022-10-04T11:48:02.569Z,8.60
2022-10-04T11:50:52.883Z,7.78
2022-10-04T11:53:52.933Z,8.38
2022-10-04T11:56:50.654Z,8.32
2022-10-04T11:59:39.406Z,9.02
2022-10-04T12:02:50.503Z,7.80
2022-10-04T12:05:50.953Z,6.75
2022-10-04T12:08:38.163Z,8.60
2022-10-04T12:11:27.344Z,4.93
2022-10-04T12:14:24.863Z,7.65
2022-10-04T12:17:21.283Z,5.82
2022-10-04T12:20:25.922Z,6.72
2022-10-04T12:23:21.970Z,7.95
2022-10-04T12:26:20.532Z,3.80
2022-10-04T12:29:27.717Z,5.90
2022-10-04T12:32:11.803Z,5.72
2022-10-04T12:34:58.160Z,6.07
2022-10-04T12:37:43.240Z,5.28
2022-10-04T12:40:33.126Z,9.57
2022-10-04T12:43:19.727Z,7.75
2022-10-04T12:46:10.717Z,6.65
2022-10-04T12:49:01.877Z,4.20
2022-10-04T12:51:53.811Z,5.32
2022-10-04T12:54:39.065Z,6.88
2022-10-04T12:57:31.332Z,6.95
2022-10-04T13:00:19.294Z,7.88
2022-10-04T13:03:08.953Z,5.47
2022-10-04T13:05:54.819Z,7.35
2022-10-04T13:08:42.623Z,5.75
2022-10-04T13:11:39.768Z,4.78
2022-10-04T13:14:30.427Z,8.50
2022-10-04T13:17:28.308Z,5.22
2022-10-04T13:20:29.887Z,5.50
2022-10-04T13:23:20.491Z,6.97
2022-10-04T13:26:10.255Z,5.40
2022-10-04T13:29:02.011Z,5.63
2022-10-04T13:31:50.294Z,5.35
2022-10-04T13:34:37.688Z,7.95
2022-10-04T13:37:25.958Z,5.85
2022-10-04T13:40:22.030Z,6.82
2022-10-04T13:43:34.905Z,6.32
2022-10-04T13:46:24.762Z,2.53
2022-10-04T13:49:21.375Z,9.57
2022-10-04T13:52:28.310Z,7.03
2022-10-04T13:55:36.463Z,3.70
2022-10-04T13:58:25.979Z,3.25
2022-10-04T14:01:23.077Z,3.03
2022-10-04T14:04:11.974Z,3.55
2022-10-04T14:07:22.951Z,3.80
2022-10-04T14:10:18.189Z,5.75
2022-10-04T14:13:18.171Z,2.90
2022-10-04T14:16:23.508Z,3.97
2022-10-04T14:19:27.095Z,7.75
2022-10-04T14:22:23.072Z,3.83
2022-10-04T14:25:25.093Z,3.95
2022-10-04T14:28:17.734Z,6.18
2022-10-04T14:31:08.065Z,3.97
2022-10-04T14:34:02.329Z,5.32
2022-10-04T14:37:09.195Z,6.68
2022-10-04T14:40:01.199Z,3.95
2022-10-04T14:42:50.116Z,4.43
2022-10-04T14:45:43.832Z,3.80
2022-10-04T14:48:40.117Z,6.63
2022-10-04T14:51:32.290Z,8.35
2022-10-04T14:54:17.894Z,3.38
2022-10-04T14:57:05.218Z,3.85
2022-10-04T14:59:55.527Z,6.32
2022-10-04T15:02:49.435Z,4.50
2022-10-04T15:05:44.136Z,3.80
2022-10-04T15:08:38.783Z,3.92
2022-10-04T15:11:35.444Z,3.08
2022-10-04T15:14:24.547Z,4.95
2022-10-04T15:17:11.230Z,5.57
2022-10-04T15:20:03.122Z,3.22
2022-10-04T15:22:49.006Z,2.65
2022-10-04T15:25:39.080Z,6.00
2022-10-04T15:28:37.050Z,2.42
2022-10-04T15:31:25.253Z,5.68
2022-10-04T15:34:12.605Z,3.15
2022-10-04T15:37:04.885Z,3.05
2022-10-04T15:40:01.534Z,4.90
2022-10-04T15:42:59.683Z,5.28
2022-10-04T15:45:53.843Z,4.55
2022-10-04T15:48:49.204Z,7.55
2022-10-04T15:51:42.671Z,2.22
2022-10-04T15:54:52.261Z,4.95
2022-10-04T15:57:41.398Z,3.97
2022-10-04T16:00:25.631Z,5.35
2022-10-04T16:03:17.044Z,3.45
2022-10-04T16:06:03.930Z,3.80
2022-10-04T16:08:51.561Z,3.92
2022-10-04T16:11:40.011Z,5.50
2022-10-04T16:14:34.304Z,6.85
2022-10-04T16:17:28.477Z,2.55
2022-10-04T16:20:23.009Z,6.32
2022-10-04T16:23:24.356Z,2.88
2022-10-04T16:26:10.335Z,6.13
2022-10-04T16:29:07.118Z,4.50
2022-10-04T16:31:53.376Z,1.73
2022-10-04T16:34:46.408Z,5.25
2022-10-04T16:37:34.233Z,2.67
2022-10-04T16:40:22.863Z,2.58
2022-10-04T16:43:09.999Z,4.32
2022-10-04T16:46:07.054Z,3.35
2022-10-04T16:48:52.018Z,3.85
2022-10-04T16:51:48.636Z,2.53
2022-10-04T16:54:48.444Z,4.82
2022-10-04T16:57:31.120Z,2.60
2022-10-04T17:00:36.347Z,3.35
2022-10-04T17:03:27.138Z,3.22
2022-10-04T17:06:13.746Z,4.75
2022-10-04T17:09:06.025Z,4.40
2022-10-04T17:11:59.712Z,1.95
2022-10-04T17:14:56.503Z,4.57
2022-10-04T17:17:51.952Z,4.00
2022-10-04T17:20:45.920Z,5.05
2022-10-04T17:23:37.838Z,2.50
2022-10-04T17:26:28.552Z,3.85
2022-10-04T17:29:21.793Z,4.78
2022-10-04T17:32:07.153Z,3.42
2022-10-04T17:34:56.082Z,4.57
2022-10-04T17:37:41.947Z,2.88
2022-10-04T17:40:39.901Z,4.57
2022-10-04T17:43:28.518Z,6.70
2022-10-04T17:46:14.719Z,3.55
2022-10-04T17:49:17.535Z,4.18
2022-10-04T17:52:21.594Z,2.90
2022-10-04T17:55:18.927Z,4.15
2022-10-04T17:58:04.965Z,3.15
2022-10-04T18:00:51.156Z,5.32
2022-10-04T18:03:37.222Z,4.82
2022-10-04T18:06:28.314Z,3.00
2022-10-04T18:09:20.271Z,3.35
2022-10-04T18:12:06.158Z,5.10
2022-10-04T18:14:56.774Z,3.75
2022-10-04T18:17:41.712Z,3.67
2022-10-04T18:20:27.943Z,4.43
2022-10-04T18:23:17.664Z,4.65
2022-10-04T18:26:06.070Z,4.15
2022-10-04T18:28:49.705Z,4.82
2022-10-04T18:31:36.102Z,5.22
2022-10-04T18:34:27.427Z,5.38
2022-10-04T18:37:19.874Z,5.30
2022-10-04T18:40:12.158Z,6.07
2022-10-04T18:42:57.585Z,5.25
2022-10-04T18:45:40.702Z,3.80
2022-10-04T18:48:37.138Z,5.30
2022-10-04T18:51:27.754Z,4.85
2022-10-04T18:54:14.521Z,6.13
2022-10-04T18:57:02.985Z,4.32
2022-10-04T19:00:09.656Z,6.07
2022-10-04T19:02:57.124Z,6.80
2022-10-04T19:05:43.847Z,6.82
2022-10-04T19:08:34.386Z,5.00
2022-10-04T19:11:18.946Z,7.97
2022-10-04T19:14:08.403Z,6.63
2022-10-04T19:16:55.781Z,5.40
2022-10-04T19:19:43.239Z,4.22
2022-10-04T19:22:33.259Z,5.13
2022-10-04T19:25:25.526Z,7.05
2022-10-04T19:28:10.210Z,3.78
2022-10-04T19:30:59.115Z,8.40
2022-10-04T19:33:47.457Z,5.63
2022-10-04T19:36:46.633Z,3.67
2022-10-04T19:39:35.836Z,5.68
2022-10-04T19:42:20.183Z,3.83
2022-10-04T19:45:10.077Z,3.97
2022-10-04T19:47:56.419Z,5.85
2022-10-04T19:50:41.646Z,6.20
2022-10-04T19:53:28.040Z,4.63
2022-10-04T19:56:16.740Z,7.53
2022-10-04T19:59:05.353Z,4.85
2022-10-04T20:01:48.815Z,4.43
2022-10-04T20:04:38.743Z,6.95
2022-10-04T20:07:24.869Z,7.28
2022-10-04T20:10:16.305Z,4.70
2022-10-04T20:13:21.481Z,5.50
2022-10-04T20:16:04.268Z,5.10
2022-10-04T20:19:05.287Z,4.50
2022-10-04T20:21:48.121Z,4.75
2022-10-04T20:24:45.684Z,5.13
2022-10-04T20:27:46.882Z,2.83
2022-10-04T20:30:44.381Z,6.18
2022-10-04T20:33:47.224Z,5.32
2022-10-04T20:36:48.967Z,9.45
2022-10-04T20:39:56.613Z,7.68
2022-10-04T20:42:39.988Z,6.07
2022-10-04T20:45:31.651Z,5.25
2022-10-04T20:48:18.377Z,7.45
2022-10-04T20:51:10.845Z,4.65
2022-10-04T20:53:53.556Z,6.10
2022-10-04T20:56:37.450Z,7.35
2022-10-04T20:59:20.194Z,3.72
2022-10-04T21:02:05.136Z,4.30
2022-10-04T21:04:53.075Z,5.82
2022-10-04T21:07:37.117Z,4.93
2022-10-04T21:10:20.959Z,6.10
2022-10-04T21:13:03.845Z,6.05
2022-10-04T21:15:56.487Z,5.25
2022-10-04T21:18:39.166Z,5.30
2022-10-04T21:21:36.784Z,4.72
2022-10-04T21:24:34.817Z,5.25
2022-10-04T21:27:26.523Z,5.60
2022-10-04T21:30:14.163Z,4.18
2022-10-04T21:32:56.853Z,8.57
2022-10-04T21:35:39.536Z,4.18
2022-10-04T21:38:22.185Z,5.55
2022-10-04T21:41:06.192Z,5.40
2022-10-04T21:43:48.746Z,6.35
2022-10-04T21:46:31.388Z,7.25
2022-10-04T21:49:14.026Z,7.35
2022-10-04T21:51:56.695Z,5.15
2022-10-04T21:54:39.306Z,4.82
2022-10-04T21:57:24.075Z,4.05
2022-10-04T22:00:07.550Z,3.83
2022-10-04T22:02:54.808Z,3.85
2022-10-04T22:05:37.583Z,6.35
2022-10-04T22:08:20.194Z,4.70
2022-10-04T22:11:02.807Z,6.53
2022-10-04T22:13:48.087Z,4.80
2022-10-04T22:16:30.844Z,4.63
2022-10-04T22:19:13.729Z,5.00
2022-10-04T22:21:56.943Z,3.80
2022-10-04T22:24:39.577Z,4.25
2022-10-04T22:27:22.185Z,3.00
2022-10-04T22:30:08.561Z,6.38
2022-10-04T22:32:51.693Z,5.45
2022-10-04T22:35:36.065Z,4.10
2022-10-04T22:38:18.697Z,2.70
2022-10-04T22:41:01.345Z,7.53
2022-10-04T22:43:44.096Z,3.60
2022-10-04T22:46:33.237Z,2.92
2022-10-04T22:49:17.203Z,4.43
2022-10-04T22:52:01.370Z,4.07
2022-10-04T22:54:45.925Z,5.03
2022-10-04T22:57:31.100Z,8.13
2022-10-04T23:00:14.075Z,4.97
2022-10-04T23:02:58.250Z,4.75
2022-10-04T23:05:40.922Z,4.75
2022-10-04T23:08:23.744Z,3.90
2022-10-04T23:11:06.475Z,6.13
2022-10-04T23:13:49.129Z,5.45
2022-10-04T23:16:32.269Z,5.15
2022-10-04T23:19:18.822Z,5.95
2022-10-04T23:22:01.474Z,6.55
2022-10-04T23:24:44.150Z,5.32
2022-10-04T23:27:26.768Z,4.90
2022-10-04T23:30:13.610Z,6.30
2022-10-04T23:32:58.158Z,7.43
2022-10-04T23:35:42.261Z,6.80
2022-10-04T23:38:25.961Z,6.43
2022-10-04T23:41:10.893Z,7.97
2022-10-04T23:43:53.718Z,3.90
2022-10-04T23:46:36.358Z,6.00
2022-10-04T23:49:19.858Z,4.10
2022-10-04T23:52:04.408Z,6.40
2022-10-04T23:54:47.535Z,5.55
2022-10-04T23:57:31.133Z,5.30
